Meteo Giornale » Osservazioni meteo Italia » Falconara

ore: 14:50 - Osservazioni Meteo Falconara
Lat. 43° 37' N Lon. 13° 22' E Alt. 12 metri s.l.m.

coperto_pioggia Europe/Rome

7 °C

Pioggia Debole

Temp. 24 Ore

3 °C

9 °C

Nord-Ovest

14.8 Km/h

Dew point 7 °C

Umidità 100 %

Visibilità  10 Km

Il sole sorge alle ore 07:28

Il sole tramonta alle ore 17:09

Data e Ora Cielo e Fenomeni T °C DP °C Um. % Pres. hPa Vis. km Vento km/h
Oggi h: 14:50 coperto_pioggia Pioggia Debole 7 7 100 1000 10 NO 14.8
Oggi h: 14:20 coperto_pioggia Pioggia Debole 8 8 100 999 10 NO 25.9
Oggi h: 13:50 molto_nuvoloso Molto Nuvoloso 9 9 100 999 10 O/SO 11.1
Oggi h: 13:20 coperto_pioggia Pioggia Debole 9 9 100 999 10 S 11.1
Oggi h: 12:50 molto_nuvoloso Molto Nuvoloso 9 9 100 999 10 N 3.7
Oggi h: 12:20 coperto_pioggia Pioggia Debole 8 8 100 1000 10 N 5.5
Oggi h: 11:50 coperto_pioggia Pioggia 8 8 100 1000 10 N 5.5
Oggi h: 11:20 coperto_pioggia Pioggia Debole 8 8 100 1000 10 N 1.8
Oggi h: 10:50 coperto_pioggia Pioggia 7 7 100 1000 10 N 3.7
Oggi h: 10:20 coperto_pioggia Pioggia Debole 7 7 100 1001 10 N 5.5
Oggi h: 09:50 coperto_pioggia Pioggia Debole 6 6 100 1001 10 S/SO 9.3
Oggi h: 09:20 coperto_pioggia Pioggia 6 6 100 1001 10 S 11.1
Oggi h: 08:50 coperto_pioggia Pioggia Debole 6 6 100 1001 10 S 7.4
Oggi h: 08:20 coperto_pioggia Pioggia Debole 6 6 100 1001 10 N 3.7
Oggi h: 07:50 coperto_pioggia Pioggia Debole 6 5 93 1002 10 S/SO 7.4
Oggi h: 07:20 coperto_pioggia Pioggia Debole 7 4 81 1002 10 N 5.5
Oggi h: 06:50 coperto Coperto 7 2 70 1002 10 S/SO 9.3
Oggi h: 06:20 molto_nuvoloso Molto Nuvoloso 6 2 75 1002 10 SO 7.4
Oggi h: 05:50 molto_nuvoloso Molto Nuvoloso 6 -0 65 1001 10 SO 11.1
Oggi h: 04:50 molto_nuvoloso Molto Nuvoloso 6 -2 56 1002 10 S 7.4
Oggi h: 04:20 nuvoloso Nuvoloso 5 -3 56 1002 10 N 5.5
Oggi h: 03:50 sereno Sereno 5 -3 56 1002 10 S/SO 14.8
Oggi h: 03:20 sereno Sereno 4 -2 64 1003 10 S 7.4
Oggi h: 02:50 sereno Sereno 3 -0 80 1003 10 S/SE 7.4
Oggi h: 02:20 sereno Sereno 3 -1 74 1003 10 S 7.4
Oggi h: 01:50 sereno Sereno 4 -3 60 1003 10 S/SE 9.3
Oggi h: 01:20 sereno Sereno 4 -3 60 1003 10 S/SE 7.4
Oggi h: 00:50 sereno Sereno 4 -0 75 1003 10 S 11.1
Oggi h: 00:20 sereno Sereno 3 2 93 1002 10 S 7.4
Ieri h: 23:50 sereno Sereno 4 2 86 1002 10 N 5.5
Ieri h: 23:20 sereno Sereno 4 2 86 1002 10 O 9.3
Ieri h: 22:20 sereno Sereno 4 3 93 1001 10 O 7.4
Ieri h: 21:50 sereno Sereno 5 4 93 1000 10 N 5.5
Ieri h: 21:20 sereno Sereno 5 4 93 1000 10 O/SO 9.3
Ieri h: 20:50 sereno Sereno 6 4 86 1000 10 O 9.3
Ieri h: 20:20 molto_nuvoloso Molto Nuvoloso 7 5 87 999 10 O/NO 14.8
Ieri h: 19:50 molto_nuvoloso Molto Nuvoloso 7 6 93 999 10 O/NO 16.7
Ieri h: 19:20 molto_nuvoloso Molto Nuvoloso 7 7 100 998 10 O/NO 25.9
Ieri h: 18:50 molto_nuvoloso Molto Nuvoloso 7 7 100 998 10 O/NO 14.8
Ieri h: 18:20 coperto Coperto 7 7 100 998 10 NO 24
Ieri h: 17:50 molto_nuvoloso Molto Nuvoloso 7 7 100 997 10 O/NO 25.9
Ieri h: 17:20 coperto Coperto 7 7 100 997 10 O/NO 22.2
Ieri h: 16:50 coperto Coperto 7 7 100 997 10 O/NO 16.7
Ieri h: 16:20 coperto_pioggia Pioggia Debole 7 7 100 996 10 O/NO 14.8
Ieri h: 15:50 coperto_pioggia Pioggia Debole 8 8 100 996 8 NO 25.9
Ieri h: 15:20 coperto Coperto 8 8 100 996 10 NO 20.3